Time;durP1;ratioP1;P1;durP2;ratioP2;P2;SDS_P1;SDS_P2;PMS_P1;PMS_P2;Temp;Humidity;BMP_temperature;BMP_pressure;BME280_temperature;BME280_humidity;BME280_pressure;Samples;Min_cycle;Max_cycle;Signal;HPM_P1;HPM_P2
2023/07/08 00:01:21;;;;;;;7.93;3.47;;;;;;;;;;5020572;28;20116;-73
2023/07/08 00:03:48;;;;;;;6.63;3.45;;;;;;;;;;5042304;28;20016;-73
2023/07/08 00:06:17;;;;;;;8.25;3.10;;;;;;;;;;5056156;28;20041;-72
2023/07/08 00:08:43;;;;;;;8.48;3.33;;;;;;;;;;5056806;28;20029;-72
2023/07/08 00:11:13;;;;;;;8.45;3.15;;;;;;;;;;5028763;28;20049;-72
2023/07/08 00:13:38;;;;;;;7.65;3.00;;;;;;;;;;5038124;28;20037;-74
2023/07/08 00:16:04;;;;;;;9.38;3.58;;;;;;;;;;5016961;28;20123;-73
2023/07/08 00:18:29;;;;;;;8.57;3.55;;;;;;;;;;5034229;28;20037;-71
2023/07/08 00:20:55;;;;;;;7.15;3.50;;;;;;;;;;5057155;28;20033;-71
2023/07/08 00:23:23;;;;;;;5.68;3.28;;;;;;;;;;5054248;28;20021;-72
2023/07/08 00:25:48;;;;;;;5.43;3.20;;;;;;;;;;5051346;28;20112;-73
2023/07/08 00:28:16;;;;;;;8.25;3.40;;;;;;;;;;5053868;28;20063;-73
2023/07/08 00:30:42;;;;;;;7.30;3.53;;;;;;;;;;5051180;28;20121;-72
2023/07/08 00:33:07;;;;;;;4.57;2.92;;;;;;;;;;5034162;28;20056;-73
2023/07/08 00:35:38;;;;;;;5.60;3.35;;;;;;;;;;5042026;28;20049;-73
2023/07/08 00:38:26;;;;;;;6.05;3.22;;;;;;;;;;5024148;28;20553;-73
2023/07/08 00:41:11;;;;;;;5.85;3.28;;;;;;;;;;5056335;28;20037;-72
2023/07/08 00:43:58;;;;;;;5.05;3.05;;;;;;;;;;5035299;28;20082;-73
2023/07/08 00:46:26;;;;;;;10.50;3.40;;;;;;;;;;5056419;28;20042;-72
2023/07/08 00:49:08;;;;;;;6.35;3.30;;;;;;;;;;5059865;28;20021;-72
2023/07/08 00:51:38;;;;;;;7.75;3.08;;;;;;;;;;5024241;28;20072;-72
2023/07/08 00:54:04;;;;;;;9.50;3.13;;;;;;;;;;5019937;28;20053;-71
2023/07/08 00:56:40;;;;;;;6.90;3.22;;;;;;;;;;5056129;28;20520;-71
2023/07/08 00:59:14;;;;;;;6.00;3.13;;;;;;;;;;5031736;28;20530;-72
2023/07/08 01:01:43;;;;;;;9.52;3.60;;;;;;;;;;5052682;28;20037;-72
2023/07/08 01:04:14;;;;;;;4.22;3.22;;;;;;;;;;5033820;28;20029;-71
2023/07/08 01:06:44;;;;;;;12.40;3.75;;;;;;;;;;5054952;28;20556;-71
2023/07/08 01:09:12;;;;;;;7.97;3.38;;;;;;;;;;5044378;28;20441;-72
2023/07/08 01:11:40;;;;;;;11.93;3.33;;;;;;;;;;5037281;28;20510;-73
2023/07/08 01:14:07;;;;;;;19.55;3.28;;;;;;;;;;5056734;28;20082;-73
2023/07/08 01:16:33;;;;;;;9.45;3.30;;;;;;;;;;5043934;28;20121;-73
2023/07/08 01:19:02;;;;;;;10.30;3.45;;;;;;;;;;5039701;28;20045;-73
2023/07/08 01:21:34;;;;;;;4.25;3.15;;;;;;;;;;5027246;28;20040;-73
2023/07/08 01:24:01;;;;;;;9.02;3.85;;;;;;;;;;5025824;28;20360;-72
2023/07/08 01:26:27;;;;;;;11.38;3.92;;;;;;;;;;5038513;28;20064;-73
2023/07/08 01:28:54;;;;;;;7.47;3.20;;;;;;;;;;5051154;28;20036;-73
2023/07/08 01:31:21;;;;;;;9.68;3.25;;;;;;;;;;5040184;28;20037;-73
2023/07/08 01:33:47;;;;;;;5.40;3.25;;;;;;;;;;5052062;28;20106;-73
2023/07/08 01:36:12;;;;;;;10.27;3.47;;;;;;;;;;5060487;28;20049;-73
2023/07/08 01:38:39;;;;;;;11.98;3.40;;;;;;;;;;5031752;28;20127;-72
2023/07/08 01:41:05;;;;;;;7.25;3.20;;;;;;;;;;5049973;28;20029;-72
2023/07/08 01:43:31;;;;;;;6.75;2.95;;;;;;;;;;5012272;28;20031;-73
2023/07/08 01:46:00;;;;;;;10.13;3.55;;;;;;;;;;5040078;28;20037;-72
2023/07/08 01:48:30;;;;;;;8.38;3.80;;;;;;;;;;5035427;28;20399;-73
2023/07/08 01:51:03;;;;;;;8.07;4.15;;;;;;;;;;5032253;28;20037;-72
2023/07/08 01:53:42;;;;;;;7.28;4.05;;;;;;;;;;5054684;28;20025;-72
2023/07/08 01:56:09;;;;;;;5.53;3.38;;;;;;;;;;5020433;28;20120;-73
2023/07/08 01:58:34;;;;;;;9.70;3.63;;;;;;;;;;5039729;28;20450;-73
2023/07/08 02:01:01;;;;;;;9.30;3.47;;;;;;;;;;5056078;28;20037;-71
2023/07/08 02:03:27;;;;;;;7.45;3.00;;;;;;;;;;5053631;28;20028;-73
2023/07/08 02:05:52;;;;;;;7.07;3.45;;;;;;;;;;5052869;28;20064;-72
2023/07/08 02:08:18;;;;;;;6.32;3.67;;;;;;;;;;5022367;28;20416;-73
2023/07/08 02:10:51;;;;;;;10.77;4.00;;;;;;;;;;5053321;28;20116;-71
2023/07/08 02:13:17;;;;;;;5.85;3.80;;;;;;;;;;5040187;28;20029;-72
2023/07/08 02:15:43;;;;;;;6.18;3.25;;;;;;;;;;5026837;28;20498;-73
2023/07/08 02:18:08;;;;;;;7.95;3.75;;;;;;;;;;5051557;28;20043;-71
2023/07/08 02:20:34;;;;;;;7.60;3.75;;;;;;;;;;5034644;28;20048;-72
2023/07/08 02:22:59;;;;;;;9.38;3.95;;;;;;;;;;5033033;28;20048;-73
2023/07/08 02:25:24;;;;;;;6.38;3.70;;;;;;;;;;5031314;28;20034;-72
2023/07/08 02:27:50;;;;;;;8.07;3.83;;;;;;;;;;5034730;28;20041;-73
2023/07/08 02:30:15;;;;;;;10.48;3.78;;;;;;;;;;5033305;28;20029;-74
2023/07/08 02:32:41;;;;;;;10.15;3.70;;;;;;;;;;5017577;28;20028;-72
2023/07/08 02:35:08;;;;;;;6.43;3.83;;;;;;;;;;5032909;28;20086;-73
2023/07/08 02:37:34;;;;;;;4.72;3.42;;;;;;;;;;5032780;28;20075;-73
2023/07/08 02:40:00;;;;;;;6.53;3.75;;;;;;;;;;5037415;28;20063;-73
2023/07/08 02:42:26;;;;;;;6.60;3.75;;;;;;;;;;5016645;28;20034;-74
2023/07/08 02:44:51;;;;;;;8.98;3.53;;;;;;;;;;5017363;28;20017;-73
2023/07/08 02:47:17;;;;;;;3.95;3.30;;;;;;;;;;5050939;28;20029;-73
2023/07/08 02:49:42;;;;;;;8.65;3.50;;;;;;;;;;5040172;28;20095;-72
2023/07/08 02:52:08;;;;;;;10.13;4.03;;;;;;;;;;5032346;28;20511;-72
2023/07/08 02:54:33;;;;;;;8.55;3.55;;;;;;;;;;5052073;28;20482;-72
2023/07/08 02:57:00;;;;;;;6.30;3.53;;;;;;;;;;5053775;28;20077;-73
2023/07/08 02:59:28;;;;;;;6.40;3.75;;;;;;;;;;5023541;28;20037;-72
2023/07/08 03:01:53;;;;;;;5.70;3.20;;;;;;;;;;5052462;28;20100;-73
2023/07/08 03:04:21;;;;;;;5.55;3.50;;;;;;;;;;5029830;28;20510;-73
2023/07/08 03:06:49;;;;;;;6.57;3.70;;;;;;;;;;5032723;28;20087;-73
2023/07/08 03:09:15;;;;;;;7.95;3.40;;;;;;;;;;5043948;28;20025;-73
2023/07/08 03:11:40;;;;;;;7.30;3.65;;;;;;;;;;5048375;28;20037;-73
2023/07/08 03:14:06;;;;;;;8.73;3.67;;;;;;;;;;5023178;28;20037;-72
2023/07/08 03:16:32;;;;;;;4.30;3.20;;;;;;;;;;5019694;28;20048;-72
2023/07/08 03:18:58;;;;;;;12.18;3.70;;;;;;;;;;5037638;28;20391;-73
2023/07/08 03:21:23;;;;;;;5.43;3.28;;;;;;;;;;5032754;28;20445;-73
2023/07/08 03:23:50;;;;;;;8.68;3.38;;;;;;;;;;5052626;28;20063;-73
2023/07/08 03:26:21;;;;;;;5.78;3.70;;;;;;;;;;5046322;28;20041;-73
2023/07/08 03:28:47;;;;;;;9.88;4.15;;;;;;;;;;5057867;28;20025;-73
2023/07/08 03:31:13;;;;;;;6.32;3.45;;;;;;;;;;5058152;28;20037;-73
2023/07/08 03:33:38;;;;;;;4.78;3.75;;;;;;;;;;5056928;28;20375;-72
2023/07/08 03:36:10;;;;;;;5.65;3.80;;;;;;;;;;5037820;28;20044;-72
2023/07/08 03:38:35;;;;;;;4.13;3.72;;;;;;;;;;5052916;28;20378;-72
2023/07/08 03:41:01;;;;;;;6.05;3.47;;;;;;;;;;5052326;28;20037;-72
2023/07/08 03:43:26;;;;;;;6.60;3.28;;;;;;;;;;5050035;28;20108;-73
2023/07/08 03:45:51;;;;;;;8.63;3.67;;;;;;;;;;5041594;28;20122;-73
2023/07/08 03:48:17;;;;;;;6.60;4.03;;;;;;;;;;5048829;28;20084;-73
2023/07/08 03:50:42;;;;;;;5.43;3.42;;;;;;;;;;5016950;28;20044;-74
2023/07/08 03:53:08;;;;;;;6.15;3.33;;;;;;;;;;5051165;28;20053;-73
2023/07/08 03:55:34;;;;;;;6.85;3.53;;;;;;;;;;5034460;28;20562;-74
2023/07/08 03:57:59;;;;;;;8.90;3.70;;;;;;;;;;5041635;28;20049;-72
2023/07/08 04:00:25;;;;;;;8.10;3.78;;;;;;;;;;5019531;28;20056;-73
2023/07/08 04:02:50;;;;;;;10.35;4.82;;;;;;;;;;5032314;28;20108;-74
2023/07/08 04:05:18;;;;;;;7.95;3.78;;;;;;;;;;5035285;28;20037;-73
2023/07/08 04:07:43;;;;;;;5.50;3.55;;;;;;;;;;5055925;28;20044;-73
2023/07/08 04:10:09;;;;;;;9.15;4.00;;;;;;;;;;5036107;28;20025;-73
2023/07/08 04:12:35;;;;;;;8.13;4.28;;;;;;;;;;5049019;28;20371;-72
2023/07/08 04:15:01;;;;;;;10.77;4.32;;;;;;;;;;5032270;28;20036;-72
2023/07/08 04:17:27;;;;;;;10.73;4.20;;;;;;;;;;5057176;28;20453;-73
2023/07/08 04:19:52;;;;;;;6.22;3.47;;;;;;;;;;5044634;28;20028;-48
2023/07/08 04:22:17;;;;;;;7.40;4.18;;;;;;;;;;5022879;28;20064;-73
2023/07/08 04:24:43;;;;;;;7.50;4.13;;;;;;;;;;5012527;28;20025;-73
2023/07/08 04:27:15;;;;;;;7.10;3.42;;;;;;;;;;5040303;28;20462;-73
2023/07/08 04:29:41;;;;;;;6.45;4.10;;;;;;;;;;5052475;28;20028;-72
2023/07/08 04:32:07;;;;;;;7.13;3.90;;;;;;;;;;5049392;28;20124;-73
2023/07/08 04:34:32;;;;;;;7.95;3.70;;;;;;;;;;5037236;28;20057;-71
2023/07/08 04:36:58;;;;;;;7.55;3.55;;;;;;;;;;5053749;28;20622;-73
2023/07/08 04:39:23;;;;;;;11.05;4.13;;;;;;;;;;5053284;28;20454;-74
2023/07/08 04:41:49;;;;;;;8.85;3.88;;;;;;;;;;5051131;28;20432;-73
2023/07/08 04:44:14;;;;;;;7.13;3.58;;;;;;;;;;5054975;28;20028;-72
2023/07/08 04:46:50;;;;;;;7.38;3.80;;;;;;;;;;5047393;28;20037;-70
2023/07/08 04:49:17;;;;;;;8.85;3.92;;;;;;;;;;5056333;28;20044;-72
2023/07/08 04:51:42;;;;;;;8.93;3.85;;;;;;;;;;5061295;28;20098;-71
2023/07/08 04:54:08;;;;;;;9.23;3.75;;;;;;;;;;5057594;28;20102;-71
2023/07/08 04:56:54;;;;;;;11.50;4.15;;;;;;;;;;5048654;28;20052;-72
2023/07/08 04:59:25;;;;;;;9.48;4.18;;;;;;;;;;5055495;28;20064;-71
2023/07/08 05:01:52;;;;;;;11.23;3.50;;;;;;;;;;5037243;28;20120;-72
2023/07/08 05:04:20;;;;;;;10.50;4.03;;;;;;;;;;5024423;28;20025;-71
2023/07/08 05:06:46;;;;;;;9.45;4.18;;;;;;;;;;5027020;28;20517;-72
2023/07/08 05:09:11;;;;;;;6.72;4.00;;;;;;;;;;5049405;28;20056;-72
2023/07/08 05:11:37;;;;;;;6.93;3.90;;;;;;;;;;5028217;28;20068;-73
2023/07/08 05:14:03;;;;;;;6.13;3.78;;;;;;;;;;5055085;28;20033;-74
2023/07/08 05:16:29;;;;;;;6.47;3.88;;;;;;;;;;5053105;28;20118;-74
2023/07/08 05:18:54;;;;;;;6.53;4.00;;;;;;;;;;5056412;28;20078;-73
2023/07/08 05:21:21;;;;;;;6.60;3.85;;;;;;;;;;5032632;28;20132;-74
2023/07/08 05:23:49;;;;;;;9.52;4.70;;;;;;;;;;5049017;28;20013;-74
2023/07/08 05:26:14;;;;;;;13.63;4.22;;;;;;;;;;5046091;28;20450;-73
2023/07/08 05:28:40;;;;;;;5.80;3.95;;;;;;;;;;5046722;28;20363;-74
2023/07/08 05:31:05;;;;;;;12.00;4.32;;;;;;;;;;5054902;28;20041;-73
2023/07/08 05:33:31;;;;;;;9.18;3.92;;;;;;;;;;5050990;28;20025;-73
2023/07/08 05:35:58;;;;;;;8.75;4.28;;;;;;;;;;5049848;28;20040;-74
2023/07/08 05:38:23;;;;;;;7.93;3.80;;;;;;;;;;5035804;28;20082;-74
2023/07/08 05:40:55;;;;;;;8.35;4.45;;;;;;;;;;5036555;28;20037;-74
2023/07/08 05:43:20;;;;;;;11.95;3.90;;;;;;;;;;5055612;28;20021;-74
2023/07/08 05:45:46;;;;;;;5.90;3.75;;;;;;;;;;5055498;28;20060;-75
2023/07/08 05:48:12;;;;;;;6.05;4.15;;;;;;;;;;5053837;28;20030;-75
2023/07/08 05:50:38;;;;;;;7.90;4.72;;;;;;;;;;5032331;28;20483;-74
2023/07/08 05:53:04;;;;;;;8.73;4.18;;;;;;;;;;5055109;28;20028;-74
2023/07/08 05:55:31;;;;;;;11.93;4.00;;;;;;;;;;5049487;28;20052;-74
2023/07/08 05:57:57;;;;;;;13.27;4.68;;;;;;;;;;5048156;28;20021;-73
2023/07/08 06:00:22;;;;;;;9.27;4.93;;;;;;;;;;5036967;28;20037;-74
2023/07/08 06:02:48;;;;;;;7.05;4.10;;;;;;;;;;5054877;28;20020;-74
2023/07/08 06:05:13;;;;;;;11.18;4.57;;;;;;;;;;5052940;28;20446;-74
2023/07/08 06:07:38;;;;;;;11.65;4.53;;;;;;;;;;5032871;28;20536;-74
2023/07/08 06:10:04;;;;;;;10.05;4.38;;;;;;;;;;5042296;28;20039;-74
2023/07/08 06:12:30;;;;;;;11.10;4.95;;;;;;;;;;5049251;28;20070;-74
2023/07/08 06:14:56;;;;;;;13.13;4.95;;;;;;;;;;5054304;28;20082;-75
2023/07/08 06:17:21;;;;;;;14.95;4.70;;;;;;;;;;5028122;28;20055;-75
2023/07/08 06:19:47;;;;;;;14.60;5.30;;;;;;;;;;5035962;28;20582;-75
2023/07/08 06:22:12;;;;;;;11.45;5.18;;;;;;;;;;5007825;28;20055;-76
2023/07/08 06:24:38;;;;;;;14.52;5.97;;;;;;;;;;5052557;28;20100;-75
2023/07/08 06:27:03;;;;;;;9.02;4.18;;;;;;;;;;5034071;28;20064;-75
2023/07/08 06:29:29;;;;;;;7.22;4.15;;;;;;;;;;5033980;28;20769;-73
2023/07/08 06:31:54;;;;;;;10.60;4.95;;;;;;;;;;5002820;28;20037;-74
2023/07/08 06:34:23;;;;;;;10.77;4.88;;;;;;;;;;5021223;28;20562;-75
2023/07/08 06:36:49;;;;;;;13.13;4.20;;;;;;;;;;5034747;28;20033;-73
2023/07/08 06:39:14;;;;;;;13.18;4.55;;;;;;;;;;5051262;28;20403;-75
2023/07/08 06:41:40;;;;;;;9.88;5.45;;;;;;;;;;5054666;28;20510;-74
2023/07/08 06:44:05;;;;;;;11.43;5.22;;;;;;;;;;5010480;28;20394;-74
2023/07/08 06:46:31;;;;;;;10.80;5.07;;;;;;;;;;5042697;28;20043;-76
2023/07/08 06:48:56;;;;;;;12.57;4.78;;;;;;;;;;5052760;28;20111;-75
2023/07/08 06:51:22;;;;;;;14.38;5.43;;;;;;;;;;4999925;28;20079;-75
2023/07/08 06:53:47;;;;;;;12.20;4.97;;;;;;;;;;5053851;28;20033;-75
2023/07/08 06:56:13;;;;;;;13.82;5.63;;;;;;;;;;5031586;28;20124;-75
2023/07/08 06:58:38;;;;;;;22.50;5.53;;;;;;;;;;5036972;28;20027;-75
2023/07/08 07:01:04;;;;;;;8.20;5.10;;;;;;;;;;5026396;28;21615;-75
2023/07/08 07:03:29;;;;;;;10.73;4.68;;;;;;;;;;5038786;28;20060;-75
2023/07/08 07:05:55;;;;;;;7.15;4.15;;;;;;;;;;5037847;28;20033;-75
2023/07/08 07:08:20;;;;;;;6.25;4.05;;;;;;;;;;5037985;28;20433;-74
2023/07/08 07:10:45;;;;;;;13.70;4.20;;;;;;;;;;5045618;28;20167;-75
2023/07/08 07:13:11;;;;;;;8.70;4.55;;;;;;;;;;5043481;28;20021;-74
2023/07/08 07:15:36;;;;;;;10.05;4.45;;;;;;;;;;5057540;28;20037;-76
2023/07/08 07:18:02;;;;;;;10.45;4.50;;;;;;;;;;5041082;28;21059;-74
2023/07/08 07:20:28;;;;;;;6.03;4.15;;;;;;;;;;5049294;28;20029;-73
2023/07/08 07:22:54;;;;;;;4.47;3.97;;;;;;;;;;5046574;28;20032;-75
2023/07/08 07:25:20;;;;;;;5.53;3.85;;;;;;;;;;5056813;28;20384;-74
2023/07/08 07:27:45;;;;;;;6.85;4.43;;;;;;;;;;5039860;28;20025;-73
2023/07/08 07:30:15;;;;;;;5.93;4.20;;;;;;;;;;5023068;28;20037;-75
2023/07/08 07:32:43;;;;;;;9.25;4.35;;;;;;;;;;5028860;28;20029;-74
2023/07/08 07:35:12;;;;;;;7.90;4.18;;;;;;;;;;5039972;28;20029;-74
2023/07/08 07:37:39;;;;;;;9.57;4.70;;;;;;;;;;5051886;28;20028;-75
2023/07/08 07:40:06;;;;;;;11.82;5.10;;;;;;;;;;5048547;28;20043;-75
2023/07/08 07:42:32;;;;;;;10.57;4.72;;;;;;;;;;5033153;28;20025;-73
2023/07/08 07:44:57;;;;;;;7.80;4.55;;;;;;;;;;5046815;28;20025;-74
2023/07/08 07:47:22;;;;;;;11.55;5.20;;;;;;;;;;5039975;28;20021;-75
2023/07/08 07:49:48;;;;;;;9.35;4.82;;;;;;;;;;5041406;28;20120;-75
2023/07/08 07:52:13;;;;;;;10.85;4.60;;;;;;;;;;5036753;28;20049;-75
2023/07/08 07:54:39;;;;;;;5.28;4.25;;;;;;;;;;5054763;28;20041;-74
2023/07/08 07:57:05;;;;;;;9.38;4.15;;;;;;;;;;5058595;28;20036;-76
2023/07/08 07:59:30;;;;;;;6.82;3.97;;;;;;;;;;5041209;28;20029;-75
2023/07/08 08:01:55;;;;;;;8.95;4.53;;;;;;;;;;5038322;28;20036;-74
2023/07/08 08:04:21;;;;;;;13.30;4.57;;;;;;;;;;5042904;28;20640;-75
2023/07/08 08:06:47;;;;;;;11.25;4.03;;;;;;;;;;5056300;28;20066;-76
2023/07/08 08:09:12;;;;;;;10.40;4.60;;;;;;;;;;5057210;28;20029;-75
2023/07/08 08:11:38;;;;;;;9.70;4.88;;;;;;;;;;5052976;28;20028;-74
2023/07/08 08:14:04;;;;;;;8.25;4.50;;;;;;;;;;5043643;28;20033;-76
2023/07/08 08:16:30;;;;;;;6.68;4.10;;;;;;;;;;5045045;28;20505;-76
2023/07/08 08:18:55;;;;;;;13.70;4.55;;;;;;;;;;5056833;28;20021;-75
2023/07/08 08:21:21;;;;;;;9.25;4.55;;;;;;;;;;5031509;28;20112;-75
2023/07/08 08:23:47;;;;;;;10.90;4.18;;;;;;;;;;5040312;28;20037;-76
2023/07/08 08:26:12;;;;;;;10.02;4.38;;;;;;;;;;5028482;28;20042;-75
2023/07/08 08:28:38;;;;;;;9.13;4.35;;;;;;;;;;5033932;28;20032;-75
2023/07/08 08:31:04;;;;;;;5.57;4.05;;;;;;;;;;5038210;28;20052;-76
2023/07/08 08:33:29;;;;;;;8.65;4.47;;;;;;;;;;5021880;28;20039;-76
2023/07/08 08:35:54;;;;;;;6.53;4.30;;;;;;;;;;5055881;28;20029;-75
2023/07/08 08:38:20;;;;;;;7.15;4.22;;;;;;;;;;5041273;28;20025;-76
2023/07/08 08:40:45;;;;;;;15.43;5.00;;;;;;;;;;5033516;28;20036;-76
2023/07/08 08:43:28;;;;;;;11.88;4.30;;;;;;;;;;5056726;28;20056;-75
2023/07/08 08:46:25;;;;;;;6.50;4.05;;;;;;;;;;5036848;28;20047;-74
2023/07/08 08:48:54;;;;;;;5.97;3.90;;;;;;;;;;5048463;28;20036;-75
2023/07/08 08:51:19;;;;;;;10.07;4.10;;;;;;;;;;5056105;28;20041;-74
2023/07/08 08:53:46;;;;;;;13.18;4.55;;;;;;;;;;5037290;28;20033;-73
2023/07/08 08:56:34;;;;;;;4.97;3.55;;;;;;;;;;5039532;28;20041;-75
2023/07/08 08:59:03;;;;;;;12.85;4.47;;;;;;;;;;5044413;28;20110;-75
2023/07/08 09:01:28;;;;;;;9.43;4.57;;;;;;;;;;5053779;28;20063;-75
2023/07/08 09:04:19;;;;;;;7.43;4.10;;;;;;;;;;5054956;28;20025;-75
2023/07/08 09:06:45;;;;;;;8.65;4.53;;;;;;;;;;5045269;28;20064;-75
2023/07/08 09:09:37;;;;;;;7.18;4.57;;;;;;;;;;5045980;28;20025;-76
2023/07/08 09:12:02;;;;;;;;;;;;;;;;;;5045012;28;20115;-76
2023/07/08 09:14:29;;;;;;;11.68;4.35;;;;;;;;;;5055989;28;19956;-77
2023/07/08 09:17:27;;;;;;;7.47;4.30;;;;;;;;;;5036762;28;20053;-75
2023/07/08 09:20:16;;;;;;;6.88;4.57;;;;;;;;;;5029294;28;20032;-64
2023/07/08 09:22:42;;;;;;;7.45;4.80;;;;;;;;;;5053998;28;20039;-75
2023/07/08 09:25:22;;;;;;;7.25;4.32;;;;;;;;;;5048724;28;20029;-76
2023/07/08 09:27:48;;;;;;;9.95;4.78;;;;;;;;;;5053196;28;20039;-75
2023/07/08 09:30:15;;;;;;;7.50;4.40;;;;;;;;;;5035129;28;20444;-76
2023/07/08 09:32:41;;;;;;;13.27;4.88;;;;;;;;;;5027193;28;20541;-76
2023/07/08 09:35:08;;;;;;;6.53;4.90;;;;;;;;;;5041226;28;20020;-75
2023/07/08 09:37:36;;;;;;;5.88;4.13;;;;;;;;;;5056064;28;20051;-76
2023/07/08 09:40:16;;;;;;;11.15;4.85;;;;;;;;;;5020184;28;20025;-75
2023/07/08 09:42:44;;;;;;;11.27;4.10;;;;;;;;;;5043177;28;20132;-76
2023/07/08 09:45:14;;;;;;;9.25;4.43;;;;;;;;;;5055146;28;20021;-75
2023/07/08 09:47:40;;;;;;;10.65;4.53;;;;;;;;;;5036514;28;20371;-75
2023/07/08 09:50:24;;;;;;;9.50;3.75;;;;;;;;;;5020833;28;20041;-76
2023/07/08 09:52:53;;;;;;;10.93;5.07;;;;;;;;;;5044780;28;20470;-76
2023/07/08 09:55:19;;;;;;;7.22;4.53;;;;;;;;;;5047028;28;20071;-77
2023/07/08 09:57:50;;;;;;;8.50;4.32;;;;;;;;;;5032866;28;20029;-75
2023/07/08 10:00:18;;;;;;;7.53;4.28;;;;;;;;;;5054170;28;20041;-75
2023/07/08 10:02:54;;;;;;;8.13;4.65;;;;;;;;;;5061478;28;20494;-76
2023/07/08 10:05:34;;;;;;;6.85;4.20;;;;;;;;;;5024547;28;20057;-77
2023/07/08 10:08:03;;;;;;;7.18;4.50;;;;;;;;;;5049722;28;20642;-76
2023/07/08 10:10:35;;;;;;;7.72;4.30;;;;;;;;;;5040270;28;20127;-76
2023/07/08 10:13:22;;;;;;;10.27;4.15;;;;;;;;;;5036443;28;20033;-76
2023/07/08 10:16:01;;;;;;;5.78;4.22;;;;;;;;;;5029564;28;20054;-76
2023/07/08 10:18:29;;;;;;;8.13;4.80;;;;;;;;;;5010784;28;20038;-75
2023/07/08 10:21:17;;;;;;;5.47;3.80;;;;;;;;;;5005562;28;20101;-76
2023/07/08 10:23:54;;;;;;;13.52;4.70;;;;;;;;;;5010750;28;20040;-76
2023/07/08 10:26:28;;;;;;;8.88;4.65;;;;;;;;;;5009317;28;20056;-73
2023/07/08 10:29:02;;;;;;;6.93;4.38;;;;;;;;;;5024210;28;20492;-73
2023/07/08 10:31:39;;;;;;;7.55;4.30;;;;;;;;;;5009835;28;20038;-73
2023/07/08 10:34:26;;;;;;;6.18;4.35;;;;;;;;;;4979432;28;20044;-73
2023/07/08 10:37:08;;;;;;;11.70;4.70;;;;;;;;;;4999955;28;20026;-74
2023/07/08 10:40:06;;;;;;;11.02;4.55;;;;;;;;;;4999221;28;20037;-74
2023/07/08 10:42:46;;;;;;;15.82;4.90;;;;;;;;;;4991443;28;20054;-75
2023/07/08 10:45:16;;;;;;;7.75;4.53;;;;;;;;;;5012527;28;20028;-74
2023/07/08 10:48:06;;;;;;;5.28;4.35;;;;;;;;;;5013001;28;20076;-76
2023/07/08 10:50:53;;;;;;;12.27;4.63;;;;;;;;;;5011162;28;20050;-74
2023/07/08 10:53:30;;;;;;;10.20;4.60;;;;;;;;;;5011838;28;20033;-76
2023/07/08 10:56:13;;;;;;;9.25;4.53;;;;;;;;;;5011481;28;20404;-75
2023/07/08 10:59:26;;;;;;;8.73;4.85;;;;;;;;;;5004622;28;20072;-76
2023/07/08 11:02:07;;;;;;;11.13;4.63;;;;;;;;;;5005548;28;20093;-75
2023/07/08 11:04:41;;;;;;;9.07;5.03;;;;;;;;;;5011636;28;20588;-76
2023/07/08 11:07:09;;;;;;;11.13;5.10;;;;;;;;;;5007592;28;20045;-76
2023/07/08 11:09:44;;;;;;;9.85;5.15;;;;;;;;;;5012995;28;20387;-76
2023/07/08 11:12:31;;;;;;;16.80;4.60;;;;;;;;;;5026940;28;20088;-75
2023/07/08 11:15:12;;;;;;;10.02;5.20;;;;;;;;;;5005076;28;20039;-75
2023/07/08 11:18:26;;;;;;;11.15;5.45;;;;;;;;;;5044660;28;20407;-75
2023/07/08 11:21:00;;;;;;;8.90;5.20;;;;;;;;;;5018129;28;20029;-76
2023/07/08 11:23:49;;;;;;;10.05;5.57;;;;;;;;;;5042846;28;20033;-75
2023/07/08 11:26:33;;;;;;;17.73;5.70;;;;;;;;;;5053134;28;20099;-75
2023/07/08 11:29:00;;;;;;;15.50;5.57;;;;;;;;;;5035241;28;20021;-75
2023/07/08 11:31:30;;;;;;;15.98;5.90;;;;;;;;;;5053232;28;20047;-75
2023/07/08 11:33:57;;;;;;;10.80;5.07;;;;;;;;;;5037381;28;20020;-74
2023/07/08 11:36:25;;;;;;;19.38;5.25;;;;;;;;;;5046380;28;20040;-74
2023/07/08 11:38:54;;;;;;;8.00;4.82;;;;;;;;;;5023011;28;20022;-75
2023/07/08 11:41:23;;;;;;;11.93;5.50;;;;;;;;;;5029633;28;20040;-74
2023/07/08 11:44:02;;;;;;;11.15;4.95;;;;;;;;;;5039035;28;20025;-74
2023/07/08 11:46:31;;;;;;;7.55;4.80;;;;;;;;;;5032982;28;20132;-74
2023/07/08 11:49:04;;;;;;;18.05;5.43;;;;;;;;;;5034154;28;20024;-74
2023/07/08 11:51:37;;;;;;;11.10;5.07;;;;;;;;;;5057922;28;20063;-73
2023/07/08 11:54:30;;;;;;;10.10;4.60;;;;;;;;;;5034325;28;20040;-74
2023/07/08 11:57:08;;;;;;;13.18;5.30;;;;;;;;;;5049663;28;20463;-73
2023/07/08 11:59:40;;;;;;;11.38;4.80;;;;;;;;;;5057800;28;20032;-74
2023/07/08 12:02:13;;;;;;;7.82;4.80;;;;;;;;;;5053748;28;20041;-74
2023/07/08 12:05:02;;;;;;;12.57;5.50;;;;;;;;;;5037570;28;20116;-74
2023/07/08 12:07:36;;;;;;;8.93;4.97;;;;;;;;;;5055815;28;20040;-74
2023/07/08 12:10:12;;;;;;;7.90;4.88;;;;;;;;;;5055989;28;20021;-74
2023/07/08 12:12:42;;;;;;;7.30;4.57;;;;;;;;;;5036689;28;20116;-72
2023/07/08 12:15:23;;;;;;;12.30;5.90;;;;;;;;;;5047731;28;20033;-73
2023/07/08 12:17:51;;;;;;;13.15;5.20;;;;;;;;;;5049025;28;20073;-73
2023/07/08 12:20:28;;;;;;;9.30;4.88;;;;;;;;;;5041275;28;20034;-74
2023/07/08 12:22:53;;;;;;;12.32;5.07;;;;;;;;;;5039970;28;20047;-74
2023/07/08 12:25:22;;;;;;;10.57;5.30;;;;;;;;;;5054791;28;20037;-74
2023/07/08 12:27:48;;;;;;;9.55;5.07;;;;;;;;;;5056384;28;20032;-73
2023/07/08 12:30:15;;;;;;;9.63;5.00;;;;;;;;;;5001772;28;20086;-74
2023/07/08 12:32:41;;;;;;;14.70;5.10;;;;;;;;;;5023963;28;20021;-73
2023/07/08 12:35:25;;;;;;;11.20;5.10;;;;;;;;;;5037715;28;20029;-73
2023/07/08 12:37:54;;;;;;;14.85;5.45;;;;;;;;;;5055180;28;20033;-73
2023/07/08 12:40:24;;;;;;;11.32;5.05;;;;;;;;;;5059303;28;20124;-73
2023/07/08 12:42:50;;;;;;;11.20;5.20;;;;;;;;;;5056540;28;20414;-74
2023/07/08 12:45:20;;;;;;;7.95;4.50;;;;;;;;;;5052964;28;20048;-73
2023/07/08 12:47:46;;;;;;;11.65;5.15;;;;;;;;;;5048567;28;20033;-73
2023/07/08 12:50:12;;;;;;;6.72;4.53;;;;;;;;;;5059945;28;20031;-73
2023/07/08 12:52:38;;;;;;;7.85;4.53;;;;;;;;;;5053852;28;20371;-75
2023/07/08 12:55:05;;;;;;;9.93;4.75;;;;;;;;;;5054606;28;20048;-74
2023/07/08 12:57:31;;;;;;;9.00;4.47;;;;;;;;;;5030953;28;20483;-74
2023/07/08 12:59:57;;;;;;;8.65;4.65;;;;;;;;;;5050084;28;20017;-75
2023/07/08 13:02:26;;;;;;;8.50;4.60;;;;;;;;;;5054166;28;20074;-74
2023/07/08 13:04:58;;;;;;;7.32;4.45;;;;;;;;;;5043679;28;20104;-75
2023/07/08 13:07:38;;;;;;;8.25;4.72;;;;;;;;;;5028849;28;20048;-74
2023/07/08 13:10:06;;;;;;;8.25;4.95;;;;;;;;;;5037086;28;20043;-74
2023/07/08 13:12:35;;;;;;;5.80;4.32;;;;;;;;;;5034906;28;20084;-76
2023/07/08 13:15:01;;;;;;;6.90;4.43;;;;;;;;;;5021355;28;20028;-75
2023/07/08 13:17:27;;;;;;;9.85;4.78;;;;;;;;;;5054309;28;20140;-75
2023/07/08 13:19:53;;;;;;;12.70;5.00;;;;;;;;;;5048071;28;20064;-65
2023/07/08 13:22:20;;;;;;;11.35;5.00;;;;;;;;;;5050109;28;20029;-75
2023/07/08 13:24:47;;;;;;;11.40;5.10;;;;;;;;;;5034719;28;20055;-75
2023/07/08 13:27:23;;;;;;;10.35;4.82;;;;;;;;;;5038343;28;20048;-74
2023/07/08 13:29:51;;;;;;;9.20;4.95;;;;;;;;;;5053202;28;20071;-75
2023/07/08 13:32:17;;;;;;;6.45;4.65;;;;;;;;;;5036333;28;20510;-76
2023/07/08 13:34:42;;;;;;;8.15;4.82;;;;;;;;;;5038060;28;20098;-76
2023/07/08 13:37:12;;;;;;;8.43;5.18;;;;;;;;;;5043623;28;20047;-76
2023/07/08 13:39:38;;;;;;;8.77;5.15;;;;;;;;;;5054170;28;20059;-76
2023/07/08 13:42:07;;;;;;;11.02;5.30;;;;;;;;;;5037231;28;20511;-73
2023/07/08 13:44:34;;;;;;;8.77;4.90;;;;;;;;;;5047190;28;20033;-74
2023/07/08 13:47:00;;;;;;;10.00;4.97;;;;;;;;;;5052919;28;20032;-74
2023/07/08 13:49:39;;;;;;;8.18;5.03;;;;;;;;;;5040416;28;20036;-75
2023/07/08 13:52:10;;;;;;;14.43;5.18;;;;;;;;;;5050858;28;20049;-76
2023/07/08 13:54:44;;;;;;;;;;;;;;;;;;5056467;28;20501;-75
2023/07/08 13:57:12;;;;;;;9.48;5.57;;;;;;;;;;5054962;28;19919;-74
2023/07/08 13:59:37;;;;;;;11.15;4.88;;;;;;;;;;5056404;28;20501;-74
2023/07/08 14:02:17;;;;;;;10.80;5.68;;;;;;;;;;5037797;28;20059;-74
2023/07/08 14:04:42;;;;;;;14.07;5.20;;;;;;;;;;5054247;28;20024;-74
2023/07/08 14:07:20;;;;;;;11.80;4.80;;;;;;;;;;5034823;28;20044;-73
2023/07/08 14:09:46;;;;;;;8.18;4.65;;;;;;;;;;5018185;28;20037;-74
2023/07/08 14:12:11;;;;;;;11.05;4.82;;;;;;;;;;5041350;28;20056;-73
2023/07/08 14:14:37;;;;;;;5.53;4.57;;;;;;;;;;5040881;28;20114;-73
2023/07/08 14:17:03;;;;;;;7.88;4.70;;;;;;;;;;5044868;28;20138;-74
2023/07/08 14:19:31;;;;;;;10.43;5.22;;;;;;;;;;5052830;28;20394;-73
2023/07/08 14:22:23;;;;;;;10.30;4.80;;;;;;;;;;5049013;28;20037;-73
2023/07/08 14:24:48;;;;;;;17.40;4.90;;;;;;;;;;5037384;28;20025;-74
2023/07/08 14:27:16;;;;;;;8.15;5.18;;;;;;;;;;5020749;28;20564;-72
2023/07/08 14:29:42;;;;;;;9.88;4.78;;;;;;;;;;5017956;28;20108;-73
2023/07/08 14:32:18;;;;;;;8.52;5.25;;;;;;;;;;5036131;28;20094;-73
2023/07/08 14:34:49;;;;;;;9.18;4.88;;;;;;;;;;5055045;28;20052;-72
2023/07/08 14:37:16;;;;;;;6.43;4.55;;;;;;;;;;5033669;28;20045;-73
2023/07/08 14:39:43;;;;;;;13.77;4.72;;;;;;;;;;5055956;28;20496;-71
2023/07/08 14:42:13;;;;;;;10.43;4.80;;;;;;;;;;5031516;28;20045;-69
2023/07/08 14:44:40;;;;;;;10.07;5.10;;;;;;;;;;5055067;28;20098;-71
2023/07/08 14:47:15;;;;;;;9.25;4.93;;;;;;;;;;5033450;28;20044;-72
2023/07/08 14:49:41;;;;;;;10.60;5.57;;;;;;;;;;5054907;28;20032;-71
2023/07/08 14:52:07;;;;;;;8.30;4.82;;;;;;;;;;5037650;28;20044;-71